Time;durP1;ratioP1;P1;durP2;ratioP2;P2;SDS_P1;SDS_P2;PMS_P1;PMS_P2;Temp;Humidity;BMP_temperature;BMP_pressure;BME280_temperature;BME280_humidity;BME280_pressure;Samples;Min_cycle;Max_cycle;Signal;HPM_P1;HPM_P2
2023/02/16 00:01:57;;;;;;;31.77;17.80;;;;;;;9.11;53.09;100551.13;5000763;28;20120;-80
2023/02/16 00:04:29;;;;;;;30.17;16.85;;;;;;;9.09;53.46;100548.53;5009559;28;20050;-80
2023/02/16 00:06:56;;;;;;;30.85;17.27;;;;;;;9.08;52.59;100546.00;5003373;28;20061;-80
2023/02/16 00:09:23;;;;;;;32.00;16.45;;;;;;;9.07;52.92;100544.25;5011098;28;20273;-80
2023/02/16 00:14:38;;;;;;;33.42;19.10;;;;;;;9.01;53.14;100537.47;5010961;28;20408;-80
2023/02/16 00:17:05;;;;;;;28.88;17.65;;;;;;;9.00;53.58;100546.25;5009894;28;20054;-80
2023/02/16 00:19:40;;;;;;;29.67;18.83;;;;;;;8.94;54.19;100546.50;5010891;28;20050;-80
2023/02/16 00:22:07;;;;;;;36.17;19.90;;;;;;;8.93;53.40;100529.88;5010736;28;20050;-80
2023/02/16 00:24:34;;;;;;;32.83;18.80;;;;;;;8.92;53.28;100533.44;5010915;28;20129;-80
2023/02/16 00:27:00;;;;;;;32.67;18.00;;;;;;;8.88;53.56;100539.72;5004109;28;20049;-80
2023/02/16 00:29:33;;;;;;;34.42;18.42;;;;;;;8.86;53.50;100541.56;5010791;28;20057;-80
2023/02/16 00:32:01;;;;;;;33.20;18.77;;;;;;;8.82;54.06;100538.16;5010882;28;20057;-80
2023/02/16 00:34:40;;;;;;;31.08;18.48;;;;;;;8.75;55.09;100531.44;5008552;28;20072;-80
2023/02/16 00:37:09;;;;;;;31.45;18.98;;;;;;;8.77;54.20;100539.25;5010233;28;20057;-80
2023/02/16 00:39:39;;;;;;;35.00;19.90;;;;;;;8.71;54.13;100541.19;5010430;28;20137;-80
2023/02/16 00:42:10;;;;;;;33.33;19.00;;;;;;;8.68;54.77;100527.31;5010616;28;20578;-80
2023/02/16 00:44:42;;;;;;;35.47;20.27;;;;;;;8.64;54.98;100539.72;5010819;28;20108;-80
2023/02/16 00:47:39;;;;;;;33.72;18.35;;;;;;;8.60;55.21;100527.63;5005137;28;20496;-80
2023/02/16 00:50:30;;;;;;;31.50;19.05;;;;;;;8.57;56.94;100540.84;5009517;28;20500;-80
2023/02/16 00:52:57;;;;;;;34.00;18.83;;;;;;;8.58;54.31;100532.06;5010876;28;20088;-79
2023/02/16 00:55:27;;;;;;;37.75;20.58;;;;;;;8.54;54.91;100535.69;5010630;28;20135;-80
2023/02/16 00:58:07;;;;;;;33.70;19.98;;;;;;;8.54;54.46;100530.44;5010158;28;20531;-80
2023/02/16 01:00:36;;;;;;;34.85;20.05;;;;;;;8.50;55.16;100534.06;5010722;28;20054;-80
2023/02/16 01:03:08;;;;;;;34.40;20.30;;;;;;;8.44;55.68;100527.25;5010773;28;20046;-81
2023/02/16 01:05:35;;;;;;;38.70;20.60;;;;;;;8.44;55.07;100522.88;5011356;28;20529;-80
2023/02/16 01:11:11;;;;;;;33.88;20.15;;;;;;;8.41;55.37;100528.22;4915524;29;20048;-80
2023/02/16 01:13:45;;;;;;;36.80;20.60;;;;;;;8.37;55.90;100525.78;4995085;28;20053;-81
2023/02/16 01:16:15;;;;;;;33.58;19.63;;;;;;;8.37;55.44;100533.66;5014307;28;20089;-80
2023/02/16 01:18:42;;;;;;;32.42;19.27;;;;;;;8.35;55.07;100520.59;5014255;28;20399;-81
2023/02/16 01:21:08;;;;;;;34.90;20.05;;;;;;;8.32;55.06;100529.41;5014110;28;20042;-80
2023/02/16 01:23:36;;;;;;;41.30;20.88;;;;;;;8.30;55.54;100520.72;5014041;28;20053;-80
2023/02/16 01:26:04;;;;;;;35.85;20.63;;;;;;;8.28;55.67;100521.69;5008345;28;20068;-81
2023/02/16 01:28:35;;;;;;;37.58;21.48;;;;;;;8.25;56.38;100532.28;5013998;28;20065;-81
2023/02/16 01:31:02;;;;;;;36.15;20.95;;;;;;;8.25;55.52;100519.19;5014126;28;20050;-81
2023/02/16 01:33:29;;;;;;;37.35;20.50;;;;;;;8.21;55.62;100521.94;5014027;28;20056;-81
2023/02/16 01:35:56;;;;;;;34.22;20.77;;;;;;;8.18;56.12;100519.41;5013611;28;20467;-81
2023/02/16 01:38:27;;;;;;;35.42;20.52;;;;;;;8.15;56.87;100522.13;5013756;28;20120;-81
2023/02/16 01:41:23;;;;;;;31.95;20.55;;;;;;;8.07;58.39;100519.78;5006870;28;20069;-81
2023/02/16 01:43:57;;;;;;;36.47;20.30;;;;;;;8.08;56.92;100525.88;5013934;28;20053;-81
2023/02/16 01:46:31;;;;;;;35.60;20.95;;;;;;;8.03;58.27;100517.28;5013427;28;20054;-81
2023/02/16 01:48:58;;;;;;;36.22;21.58;;;;;;;8.02;56.48;100516.47;5013830;28;20058;-81
2023/02/16 01:51:36;;;;;;;36.55;21.25;;;;;;;7.98;57.94;100514.84;5013810;28;20050;-81
2023/02/16 01:54:31;;;;;;;32.40;20.95;;;;;;;7.94;58.79;100516.72;5013737;28;20117;-81
2023/02/16 01:57:04;;;;;;;35.10;20.05;;;;;;;7.94;57.74;100513.25;5012606;28;20063;-81
2023/02/16 01:59:42;;;;;;;39.40;21.02;;;;;;;7.92;58.32;100512.41;5013355;28;20523;-81
2023/02/16 02:02:18;;;;;;;32.40;20.80;;;;;;;7.90;57.45;100514.25;5008724;28;20057;-81
2023/02/16 02:07:47;;;;;;;;;;;;;;;7.89;58.62;100516.00;5013360;28;20501;-81
2023/02/16 02:10:48;;;;;;;33.42;19.63;;;;;;;7.87;59.20;100509.09;5013294;28;19929;-81
2023/02/16 02:13:52;;;;;;;35.33;20.80;;;;;;;7.84;58.55;100506.59;5013369;28;20050;-81
2023/02/16 02:16:20;;;;;;;37.97;21.42;;;;;;;7.82;57.04;100504.88;5012970;28;20100;-81
2023/02/16 02:18:47;;;;;;;38.00;22.92;;;;;;;7.80;57.31;100500.59;5012594;28;20473;-81
2023/02/16 02:25:19;;;;;;;40.88;22.83;;;;;;;7.72;59.91;100494.75;5013268;28;20058;-81
2023/02/16 02:27:49;;;;;;;35.92;20.77;;;;;;;7.74;57.76;100491.16;4945126;29;20089;-81
2023/02/16 02:30:36;;;;;;;37.28;21.48;;;;;;;7.73;57.32;100492.06;5002324;28;20057;-81
2023/02/16 02:33:29;;;;;;;41.55;21.95;;;;;;;7.67;58.85;100493.13;5012989;28;20079;-81
2023/02/16 02:36:21;;;;;;;41.35;22.45;;;;;;;7.65;59.22;100486.22;5012557;28;20054;-81
2023/02/16 02:39:22;;;;;;;35.50;21.20;;;;;;;7.64;59.19;100489.75;5012589;28;20073;-81
2023/02/16 02:42:04;;;;;;;48.08;21.80;;;;;;;7.62;58.44;100487.19;5012632;28;20049;-81
2023/02/16 02:44:38;;;;;;;36.75;21.40;;;;;;;7.60;57.68;100472.44;5012625;28;20064;-81
2023/02/16 02:47:04;;;;;;;45.75;22.88;;;;;;;7.58;57.21;100480.34;5006421;28;20060;-81
2023/02/16 02:49:31;;;;;;;43.60;23.50;;;;;;;7.55;57.55;100480.44;5011173;28;20516;-81
2023/02/16 02:51:58;;;;;;;39.72;21.98;;;;;;;7.53;57.59;100482.25;5012483;28;20058;-81
2023/02/16 03:00:43;;;;;;;40.90;22.35;;;;;;;7.45;59.44;100471.16;5012487;28;20046;-81
2023/02/16 03:03:22;;;;;;;35.88;22.08;;;;;;;7.41;59.69;100473.88;5007638;28;20473;-81
2023/02/16 03:05:57;;;;;;;35.88;21.92;;;;;;;7.42;59.79;100467.75;5010660;28;20672;-81
2023/02/16 03:08:28;;;;;;;42.17;23.50;;;;;;;7.43;58.92;100461.59;5012322;28;20069;-81
2023/02/16 03:13:55;;;;;;;38.78;23.23;;;;;;;7.41;59.16;100463.41;5012023;28;20053;-81
2023/02/16 03:30:45;;;;;;;39.33;23.63;;;;;;;7.33;59.02;100447.06;5011428;28;20061;-79
2023/02/16 03:33:12;;;;;;;40.28;23.23;;;;;;;7.30;58.51;100442.78;4994416;28;20132;-79
2023/02/16 03:35:39;;;;;;;39.17;23.40;;;;;;;7.28;58.81;100462.09;5011779;28;20053;-79
2023/02/16 03:38:06;;;;;;;38.10;21.95;;;;;;;7.27;58.64;100460.38;5011685;28;20061;-79
2023/02/16 03:40:34;;;;;;;41.40;23.35;;;;;;;7.23;58.83;100456.13;5012028;28;20049;-79
2023/02/16 03:43:06;;;;;;;40.20;23.95;;;;;;;7.19;59.73;100462.38;4994348;28;20112;-78
2023/02/16 03:45:35;;;;;;;41.65;24.88;;;;;;;7.17;59.17;100462.41;5011475;28;20446;-79
2023/02/16 03:48:02;;;;;;;43.70;24.58;;;;;;;7.14;59.26;100457.31;4994114;28;20041;-79
2023/02/16 03:50:29;;;;;;;43.42;25.20;;;;;;;7.11;59.32;100460.84;5011977;28;20465;-79
2023/02/16 03:53:05;;;;;;;43.47;23.20;;;;;;;7.10;59.36;100464.38;5011833;28;20076;-79
2023/02/16 03:55:34;;;;;;;39.78;24.13;;;;;;;7.08;59.62;100457.47;5011263;28;20513;-79
2023/02/16 03:58:01;;;;;;;41.25;24.35;;;;;;;7.08;59.76;100465.34;5011138;28;20066;-79
2023/02/16 04:00:28;;;;;;;38.03;22.98;;;;;;;7.04;59.53;100462.81;5011737;28;20046;-79
2023/02/16 04:02:55;;;;;;;40.80;23.55;;;;;;;7.02;59.32;100456.78;5011408;28;20057;-79
2023/02/16 04:05:21;;;;;;;46.92;25.08;;;;;;;6.99;59.77;100435.06;5011005;28;20065;-79
2023/02/16 04:07:48;;;;;;;47.97;24.95;;;;;;;6.97;59.77;100447.34;5011008;28;20046;-78
2023/02/16 04:10:14;;;;;;;39.72;23.13;;;;;;;6.97;59.59;100458.69;5011348;28;20053;-80
2023/02/16 04:12:41;;;;;;;42.65;24.73;;;;;;;6.96;59.69;100466.56;5011144;28;20068;-79
2023/02/16 04:15:11;;;;;;;47.03;24.08;;;;;;;6.94;60.13;100457.91;5011106;28;20057;-79
2023/02/16 04:17:38;;;;;;;46.25;25.20;;;;;;;6.94;59.70;100457.91;5011002;28;20133;-79
2023/02/16 04:20:09;;;;;;;46.15;24.67;;;;;;;6.91;60.27;100454.47;5011189;28;20052;-79
2023/02/16 04:22:35;;;;;;;43.25;25.00;;;;;;;6.91;60.07;100453.63;5010976;28;20046;-79
2023/02/16 04:25:02;;;;;;;45.50;26.25;;;;;;;6.89;60.24;100451.03;5010783;28;20050;-79
2023/02/16 04:27:29;;;;;;;44.75;24.48;;;;;;;6.90;60.25;100449.28;5010606;28;20076;-79
2023/02/16 04:29:55;;;;;;;43.30;26.17;;;;;;;6.88;60.50;100448.50;5011123;28;20077;-79
2023/02/16 04:32:22;;;;;;;44.00;25.52;;;;;;;6.88;60.12;100449.34;4993543;28;20052;-79
2023/02/16 04:34:48;;;;;;;43.25;25.90;;;;;;;6.87;60.51;100438.91;5010471;28;20062;-79
2023/02/16 04:37:15;;;;;;;40.75;24.95;;;;;;;6.88;59.98;100457.19;5010469;28;20104;-79
2023/02/16 04:39:42;;;;;;;42.17;23.95;;;;;;;6.87;59.76;100455.47;5010823;28;20046;-79
2023/02/16 04:42:08;;;;;;;41.38;24.65;;;;;;;6.87;59.99;100463.31;5010956;28;20057;-79
2023/02/16 04:44:34;;;;;;;44.33;25.48;;;;;;;6.85;60.00;100459.91;5010884;28;20058;-78
2023/02/16 04:47:01;;;;;;;40.63;23.40;;;;;;;6.84;59.85;100460.78;5010294;28;20061;-78
2023/02/16 04:49:28;;;;;;;38.90;24.77;;;;;;;6.83;60.24;100455.59;5010734;28;20139;-78
2023/02/16 04:51:54;;;;;;;43.67;24.90;;;;;;;6.81;60.05;100450.44;5010817;28;20153;-78
2023/02/16 04:54:21;;;;;;;46.88;26.27;;;;;;;6.80;60.07;100456.56;5010634;28;20064;-78
2023/02/16 04:56:48;;;;;;;44.63;23.95;;;;;;;6.82;60.11;100461.75;5010137;28;20424;-78
2023/02/16 04:59:15;;;;;;;43.20;26.15;;;;;;;6.80;60.18;100456.56;5010837;28;20621;-78
2023/02/16 05:01:42;;;;;;;49.83;25.90;;;;;;;6.81;60.09;100453.06;5010742;28;20062;-78
2023/02/16 05:04:08;;;;;;;45.78;27.05;;;;;;;6.80;60.51;100445.25;5010767;28;20061;-78
2023/02/16 05:06:37;;;;;;;44.20;26.45;;;;;;;6.79;60.63;100454.84;4992488;28;20823;-78
2023/02/16 05:09:05;;;;;;;46.42;26.17;;;;;;;6.79;60.53;100457.47;4993056;28;20053;-78
2023/02/16 05:14:44;;;;;;;43.85;25.45;;;;;;;6.78;61.91;100453.13;5010702;28;20498;-78
2023/02/16 05:17:14;;;;;;;42.05;25.38;;;;;;;6.80;60.77;100453.09;5009961;28;20060;-78
2023/02/16 05:19:42;;;;;;;44.85;26.85;;;;;;;6.81;60.79;100452.19;5010867;28;20053;-78
2023/02/16 05:22:09;;;;;;;45.00;27.75;;;;;;;6.82;60.66;100446.91;5010555;28;20050;-79
2023/02/16 05:24:36;;;;;;;42.65;25.95;;;;;;;6.83;60.78;100446.00;5010623;28;20124;-79
2023/02/16 05:27:04;;;;;;;48.80;26.27;;;;;;;6.86;60.62;100443.31;5009889;28;20066;-78
2023/02/16 05:29:31;;;;;;;47.70;28.98;;;;;;;6.87;60.85;100439.78;5010313;28;20054;-78
2023/02/16 05:31:58;;;;;;;48.15;28.00;;;;;;;6.91;60.86;100443.16;5010393;28;20045;-79
2023/02/16 05:34:25;;;;;;;47.72;28.52;;;;;;;6.94;60.65;100429.09;5010572;28;20045;-79
2023/02/16 05:36:51;;;;;;;45.50;25.98;;;;;;;6.96;60.67;100433.41;5009830;28;20140;-79
2023/02/16 05:39:18;;;;;;;47.33;26.77;;;;;;;6.99;60.67;100437.69;5010474;28;20107;-78
2023/02/16 05:41:45;;;;;;;45.42;27.92;;;;;;;7.00;60.75;100429.75;5010267;28;20050;-78
2023/02/16 05:44:11;;;;;;;53.47;28.17;;;;;;;7.02;61.14;100434.97;5010216;28;20054;-78
2023/02/16 05:46:39;;;;;;;43.33;26.13;;;;;;;7.03;60.82;100434.09;5009509;28;20062;-78
2023/02/16 05:49:06;;;;;;;44.38;26.95;;;;;;;7.07;60.93;100442.69;5010359;28;20049;-79
2023/02/16 05:51:34;;;;;;;44.88;26.73;;;;;;;7.09;60.54;100454.81;5010361;28;20050;-78
2023/02/16 05:54:01;;;;;;;41.38;25.77;;;;;;;7.14;60.59;100457.31;5011602;28;20053;-78
2023/02/16 05:56:28;;;;;;;42.55;25.40;;;;;;;7.15;60.25;100459.84;5013515;28;20052;-79
2023/02/16 05:58:54;;;;;;;43.78;25.95;;;;;;;7.17;60.55;100457.19;5013380;28;20506;-78
2023/02/16 06:01:21;;;;;;;41.50;25.30;;;;;;;7.19;60.27;100450.16;5013950;28;20076;-78
2023/02/16 06:03:47;;;;;;;45.83;27.00;;;;;;;7.20;60.34;100448.38;5013988;28;20050;-78
2023/02/16 06:06:14;;;;;;;40.97;25.67;;;;;;;7.22;60.39;100454.44;5013428;28;20056;-79
2023/02/16 06:08:41;;;;;;;47.70;27.70;;;;;;;7.22;60.59;100462.28;5013279;28;20486;-78
2023/02/16 06:11:34;;;;;;;45.65;27.00;;;;;;;7.22;60.05;100463.13;5013783;28;20406;-78
2023/02/16 06:13:57;;;;;;;41.97;25.13;;;;;;;7.23;60.39;100469.22;5013930;28;20053;-79
2023/02/16 06:16:29;;;;;;;42.35;26.95;;;;;;;7.22;60.66;100459.66;5013178;28;20418;-78
2023/02/16 06:18:56;;;;;;;45.83;26.90;;;;;;;7.23;60.12;100454.38;5013170;28;20054;-78
2023/02/16 06:21:24;;;;;;;41.95;26.35;;;;;;;7.24;60.18;100456.09;5013578;28;20050;-78
2023/02/16 06:23:51;;;;;;;47.00;27.40;;;;;;;7.23;60.30;100457.00;4995843;28;20597;-78
2023/02/16 06:26:18;;;;;;;41.40;26.30;;;;;;;7.24;60.15;100460.47;5012663;28;20077;-78
2023/02/16 06:28:44;;;;;;;50.40;26.23;;;;;;;7.24;60.25;100450.84;5012761;28;20529;-78
2023/02/16 06:31:11;;;;;;;47.60;27.38;;;;;;;7.25;60.04;100451.72;5013250;28;20058;-78
2023/02/16 06:33:38;;;;;;;51.58;28.20;;;;;;;7.25;60.45;100451.72;5012920;28;20049;-77
2023/02/16 06:36:05;;;;;;;46.53;26.55;;;;;;;7.25;60.14;100459.59;5012194;28;20050;-78
2023/02/16 06:38:32;;;;;;;42.60;25.98;;;;;;;7.25;60.17;100452.56;5012529;28;20069;-77
2023/02/16 06:40:58;;;;;;;45.83;27.85;;;;;;;7.25;60.10;100449.94;5013060;28;20081;-78
2023/02/16 06:43:25;;;;;;;43.00;26.88;;;;;;;7.27;60.28;100452.53;5013040;28;20132;-77
2023/02/16 06:45:51;;;;;;;45.05;26.52;;;;;;;7.28;60.38;100441.13;4995043;28;20137;-78
2023/02/16 06:48:18;;;;;;;45.83;27.33;;;;;;;7.30;59.86;100439.34;5012348;28;20487;-78
2023/02/16 06:50:45;;;;;;;48.08;27.90;;;;;;;7.30;60.01;100434.09;5011826;28;20121;-78
2023/02/16 06:53:11;;;;;;;48.85;27.98;;;;;;;7.32;60.23;100428.81;5011881;28;20181;-78
2023/02/16 06:55:38;;;;;;;45.40;29.17;;;;;;;7.33;60.51;100427.91;5012054;28;20062;-78
2023/02/16 06:58:06;;;;;;;47.45;28.48;;;;;;;7.32;60.66;100416.56;5012352;28;20077;-77
2023/02/16 07:00:33;;;;;;;46.85;28.00;;;;;;;7.36;60.17;100418.16;5012054;28;20125;-78
2023/02/16 07:03:00;;;;;;;49.70;29.10;;;;;;;7.37;60.16;100432.13;5012089;28;20407;-78
2023/02/16 07:05:27;;;;;;;49.97;28.02;;;;;;;7.39;60.03;100420.69;4993276;28;20518;-78
2023/02/16 07:07:54;;;;;;;48.38;29.15;;;;;;;7.39;60.36;100433.78;5011668;28;20053;-79
2023/02/16 07:10:20;;;;;;;48.55;29.52;;;;;;;7.41;59.73;100444.22;5011057;28;20054;-78
2023/02/16 07:12:47;;;;;;;47.42;28.52;;;;;;;7.43;60.23;100453.75;5011687;28;20053;-78
2023/02/16 07:15:14;;;;;;;48.60;29.05;;;;;;;7.47;59.86;100448.41;5011164;28;20080;-79
2023/02/16 07:17:41;;;;;;;49.38;29.45;;;;;;;7.47;60.21;100457.09;5011091;28;20081;-78
2023/02/16 07:20:08;;;;;;;49.95;30.20;;;;;;;7.52;60.01;100462.22;5012013;28;20817;-78
2023/02/16 07:22:35;;;;;;;46.60;29.15;;;;;;;7.54;60.15;100465.63;5011183;28;20588;-78
2023/02/16 07:25:02;;;;;;;44.28;27.20;;;;;;;7.59;59.73;100457.63;5011410;28;20609;-78
2023/02/16 07:27:28;;;;;;;50.90;28.58;;;;;;;7.57;60.07;100468.16;5011414;28;20053;-78
2023/02/16 07:29:55;;;;;;;46.10;27.77;;;;;;;7.58;59.84;100464.63;5011523;28;20568;-78
2023/02/16 07:32:21;;;;;;;49.63;27.30;;;;;;;7.58;59.82;100464.63;5011643;28;20062;-78
2023/02/16 07:34:48;;;;;;;46.22;27.50;;;;;;;7.59;59.78;100461.06;4993785;28;20048;-77
2023/02/16 07:37:15;;;;;;;44.60;26.52;;;;;;;7.57;59.75;100462.91;5011628;28;20065;-78
2023/02/16 07:39:44;;;;;;;48.53;29.00;;;;;;;7.56;59.81;100458.59;5011776;28;20566;-77
2023/02/16 07:42:10;;;;;;;43.60;27.05;;;;;;;7.54;59.85;100463.00;5011667;28;20467;-79
2023/02/16 07:44:37;;;;;;;43.22;26.05;;;;;;;7.53;59.59;100467.41;5011747;28;20046;-78
2023/02/16 07:47:04;;;;;;;43.95;26.42;;;;;;;7.53;59.57;100466.53;5010886;28;20057;-77
2023/02/16 07:49:30;;;;;;;46.83;28.75;;;;;;;7.49;59.84;100470.16;5011574;28;20085;-78
2023/02/16 07:51:57;;;;;;;48.35;27.40;;;;;;;7.49;60.01;100459.69;5011681;28;20625;-78
2023/02/16 07:54:23;;;;;;;44.90;26.92;;;;;;;7.46;59.70;100458.03;5011703;28;20053;-78
2023/02/16 07:56:50;;;;;;;46.80;26.85;;;;;;;7.46;59.96;100470.25;4993328;28;20053;-78
2023/02/16 07:59:16;;;;;;;46.92;26.73;;;;;;;7.47;60.04;100472.00;5011219;28;20085;-78
2023/02/16 08:01:43;;;;;;;51.70;26.85;;;;;;;7.46;59.74;100465.00;5011322;28;20048;-79
2023/02/16 08:04:09;;;;;;;48.58;27.10;;;;;;;7.46;59.76;100472.88;5011299;28;20046;-79
2023/02/16 08:06:36;;;;;;;43.85;26.48;;;;;;;7.46;60.08;100470.25;5010747;28;20060;-78
2023/02/16 08:09:03;;;;;;;42.67;26.40;;;;;;;7.47;59.83;100480.69;5011324;28;20779;-78
2023/02/16 08:11:30;;;;;;;40.95;25.48;;;;;;;7.48;59.97;100479.78;5011436;28;20057;-78
2023/02/16 08:14:00;;;;;;;42.50;26.58;;;;;;;7.51;60.82;100457.88;4993815;28;20058;-79
2023/02/16 08:16:27;;;;;;;51.80;27.98;;;;;;;7.56;60.64;100455.97;5010625;28;20407;-79
2023/02/16 08:18:56;;;;;;;43.55;26.60;;;;;;;7.61;60.48;100442.69;5011036;28;20465;-79
2023/02/16 08:21:24;;;;;;;42.42;27.33;;;;;;;7.64;60.71;100445.22;5011196;28;20057;-79
2023/02/16 08:23:52;;;;;;;45.30;28.42;;;;;;;7.65;60.42;100439.94;5010998;28;20052;-79
2023/02/16 08:26:21;;;;;;;43.03;28.23;;;;;;;7.69;60.21;100454.63;4993161;28;20050;-79
2023/02/16 08:28:50;;;;;;;42.78;26.98;;;;;;;7.73;60.35;100457.16;4993182;28;20057;-78
2023/02/16 08:31:23;;;;;;;43.38;25.67;;;;;;;7.75;60.73;100471.94;5011009;28;20053;-78
2023/02/16 08:33:53;;;;;;;42.75;27.65;;;;;;;7.79;60.53;100475.28;5011182;28;20056;-78
2023/02/16 08:36:23;;;;;;;47.38;28.35;;;;;;;7.80;60.41;100469.13;5010657;28;20060;-78
2023/02/16 08:38:52;;;;;;;48.65;27.35;;;;;;;7.82;59.96;100473.41;5010638;28;20120;-78
2023/02/16 08:41:21;;;;;;;42.63;26.75;;;;;;;7.84;59.92;100470.75;5010860;28;20057;-78
2023/02/16 08:43:48;;;;;;;44.90;28.13;;;;;;;7.86;60.25;100468.06;4993325;28;20088;-78
2023/02/16 08:46:15;;;;;;;45.53;26.98;;;;;;;7.89;59.98;100470.59;5010651;28;20053;-78
2023/02/16 08:48:44;;;;;;;43.65;26.20;;;;;;;7.92;60.03;100462.59;5010649;28;20054;-78
2023/02/16 08:51:18;;;;;;;46.10;28.38;;;;;;;7.92;60.56;100463.47;5010994;28;20045;-78
2023/02/16 08:53:45;;;;;;;42.65;27.38;;;;;;;8.00;60.08;100475.47;5010842;28;20060;-79
2023/02/16 08:56:15;;;;;;;46.25;26.42;;;;;;;8.02;59.92;100460.53;5010566;28;20502;-78
2023/02/16 08:58:42;;;;;;;44.30;26.20;;;;;;;8.05;59.94;100465.69;4993248;28;20129;-78
2023/02/16 09:01:13;;;;;;;45.70;28.30;;;;;;;8.04;60.06;100458.72;5010899;28;20085;-78
2023/02/16 09:03:43;;;;;;;44.97;26.90;;;;;;;8.08;60.23;100468.19;5010872;28;20060;-78
2023/02/16 09:06:12;;;;;;;42.05;25.52;;;;;;;8.13;59.95;100475.88;5010273;28;20510;-78
2023/02/16 09:08:39;;;;;;;45.58;26.55;;;;;;;8.16;60.06;100474.03;4992828;28;20053;-79
2023/02/16 09:11:15;;;;;;;44.47;27.70;;;;;;;8.18;60.31;100466.09;5010971;28;20053;-78
2023/02/16 09:13:43;;;;;;;43.45;26.13;;;;;;;8.23;59.88;100471.19;5010847;28;20050;-79
2023/02/16 09:16:14;;;;;;;46.08;27.08;;;;;;;8.25;59.95;100475.47;5010484;28;20056;-79
2023/02/16 09:18:43;;;;;;;41.40;25.42;;;;;;;8.29;59.75;100478.81;5010338;28;20057;-79
2023/02/16 09:21:14;;;;;;;39.03;24.00;;;;;;;8.30;59.78;100476.13;5010563;28;20082;-79
2023/02/16 09:23:46;;;;;;;43.83;26.75;;;;;;;8.34;59.98;100479.53;5005172;22;20136;-80
2023/02/16 09:26:14;;;;;;;43.92;25.50;;;;;;;8.37;59.72;100468.91;5010443;28;20104;-80
2023/02/16 09:28:41;;;;;;;41.92;25.48;;;;;;;8.40;60.08;100468.81;5002490;28;20097;-80
2023/02/16 09:31:38;;;;;;;41.88;25.25;;;;;;;8.42;60.59;100466.13;5014067;28;20045;-80
2023/02/16 09:34:20;;;;;;;42.78;26.58;;;;;;;8.47;60.47;100459.81;5002047;28;20096;-80
2023/02/16 09:36:47;;;;;;;41.92;26.33;;;;;;;8.55;59.75;100479.66;5013545;28;20057;-80
2023/02/16 09:39:15;;;;;;;42.15;25.08;;;;;;;8.61;60.07;100487.34;5014260;28;20050;-80
2023/02/16 09:41:54;;;;;;;42.40;26.48;;;;;;;8.63;60.24;100482.03;5014136;28;20048;-80
2023/02/16 09:44:48;;;;;;;39.30;25.35;;;;;;;8.68;60.28;100483.53;5013922;28;20050;-80
2023/02/16 09:47:23;;;;;;;43.08;26.35;;;;;;;8.78;59.72;100476.19;5013801;28;20052;-80
2023/02/16 09:49:51;;;;;;;43.47;25.55;;;;;;;8.84;59.32;100480.34;5011538;28;20368;-80
2023/02/16 09:52:56;;;;;;;41.65;26.48;;;;;;;8.89;59.57;100477.56;5013671;28;20053;-80
2023/02/16 09:55:25;;;;;;;42.03;26.05;;;;;;;8.94;59.39;100488.75;4964088;28;20068;-80
2023/02/16 09:57:54;;;;;;;39.78;25.63;;;;;;;8.98;59.36;100490.34;4971580;28;20062;-80
2023/02/16 10:00:34;;;;;;;39.67;24.92;;;;;;;8.96;59.46;100493.00;4982709;28;20112;-80
2023/02/16 10:03:20;;;;;;;41.78;26.08;;;;;;;9.03;59.06;100495.41;5013807;28;20049;-80
2023/02/16 10:06:00;;;;;;;41.25;26.23;;;;;;;9.05;59.58;100485.69;5013415;28;20060;-80
2023/02/16 10:08:31;;;;;;;37.45;24.58;;;;;;;9.10;59.38;100489.00;5013115;28;20125;-80
2023/02/16 10:14:04;;;;;;;43.30;26.92;;;;;;;9.21;59.28;100488.56;5013935;28;20050;-80
2023/02/16 10:16:37;;;;;;;38.22;25.60;;;;;;;9.27;59.60;100485.69;5013549;28;20058;-80
2023/02/16 10:19:17;;;;;;;39.00;24.42;;;;;;;9.33;59.79;100480.22;5013625;28;20050;-81
2023/02/16 10:21:50;;;;;;;41.78;26.08;;;;;;;9.40;59.82;100475.56;5013400;28;20053;-80
2023/02/16 10:24:17;;;;;;;43.90;24.10;;;;;;;9.52;59.31;100479.44;5013498;28;20057;-80
2023/02/16 10:27:09;;;;;;;37.13;25.10;;;;;;;9.57;59.54;100476.66;5012422;28;20058;-80
2023/02/16 10:29:36;;;;;;;38.78;25.40;;;;;;;9.68;59.17;100484.94;4998702;28;20064;-80
2023/02/16 10:32:15;;;;;;;40.22;25.65;;;;;;;9.70;59.26;100492.75;5013256;28;20042;-80
2023/02/16 10:34:50;;;;;;;38.15;25.02;;;;;;;9.75;59.05;100488.16;5012911;28;20104;-80
2023/02/16 10:37:54;;;;;;;37.60;25.30;;;;;;;9.74;58.99;100489.94;5012810;28;20136;-80
2023/02/16 10:40:26;;;;;;;;;;;;;;;9.81;59.10;100489.69;5013402;28;20092;-80
2023/02/16 10:43:23;;;;;;;39.47;24.10;;;;;;;9.80;58.71;100486.22;5012855;28;20365;-80
2023/02/16 10:45:53;;;;;;;37.13;24.05;;;;;;;9.82;58.54;100479.09;5012871;28;20049;-80
2023/02/16 10:48:21;;;;;;;36.83;24.25;;;;;;;9.82;58.51;100492.25;5012368;28;20049;-80
2023/02/16 10:51:15;;;;;;;38.47;24.70;;;;;;;9.81;58.97;100490.53;5012768;28;20132;-80
2023/02/16 10:53:46;;;;;;;;;;;;;;;9.85;59.08;100478.13;5013231;28;20062;-80
2023/02/16 10:56:38;;;;;;;37.00;23.70;;;;;;;9.88;59.10;100478.81;5012294;28;20390;-79
2023/02/16 10:59:13;;;;;;;39.28;24.13;;;;;;;9.93;58.93;100489.16;4989438;28;20053;-80
2023/02/16 11:01:44;;;;;;;36.65;25.30;;;;;;;9.94;59.05;100496.13;5012437;28;20046;-80
2023/02/16 11:04:29;;;;;;;36.97;24.17;;;;;;;9.98;59.35;100491.59;5012538;28;20052;-80
2023/02/16 11:07:11;;;;;;;35.40;23.52;;;;;;;10.03;59.43;100493.09;5012029;28;20046;-80
2023/02/16 11:09:39;;;;;;;34.90;23.73;;;;;;;10.12;59.17;100499.75;5012578;28;20569;-80
2023/02/16 11:12:23;;;;;;;40.33;25.60;;;;;;;10.15;59.49;100491.75;5012420;28;20057;-80
2023/02/16 11:14:54;;;;;;;38.72;25.35;;;;;;;10.25;58.98;100491.34;5005021;28;20410;-80
2023/02/16 11:17:22;;;;;;;36.22;24.42;;;;;;;10.31;58.97;100493.69;5011887;28;20494;-80
2023/02/16 11:19:57;;;;;;;39.67;24.60;;;;;;;10.35;59.10;100502.31;5012477;28;20096;-80
2023/02/16 11:22:28;;;;;;;38.70;24.83;;;;;;;10.41;58.54;100491.50;5012403;28;20390;-80
2023/02/16 11:24:55;;;;;;;39.00;25.73;;;;;;;10.45;58.69;100500.13;5011833;28;20136;-80
2023/02/16 11:27:23;;;;;;;36.85;24.42;;;;;;;10.48;58.73;100495.63;5011593;28;20406;-80
2023/02/16 11:29:49;;;;;;;39.83;26.48;;;;;;;10.51;58.51;100490.19;5012180;28;20054;-80
2023/02/16 11:32:20;;;;;;;41.65;26.48;;;;;;;10.54;58.38;100484.78;5012071;28;20050;-80
2023/02/16 11:34:50;;;;;;;43.95;26.25;;;;;;;10.59;58.57;100492.50;5011896;28;20133;-80
2023/02/16 11:37:29;;;;;;;38.92;25.20;;;;;;;10.61;58.71;100487.16;5007624;28;20053;-80
2023/02/16 11:40:01;;;;;;;38.92;25.40;;;;;;;10.68;58.53;100476.28;5012149;28;20335;-80
2023/02/16 11:42:33;;;;;;;36.83;25.35;;;;;;;10.72;58.61;100482.25;5011925;28;20141;-80
2023/02/16 11:45:04;;;;;;;34.75;23.92;;;;;;;10.77;58.14;100468.88;5005592;28;20140;-80
2023/02/16 11:47:33;;;;;;;33.78;23.70;;;;;;;10.81;58.10;100468.66;5011275;28;20050;-80
2023/02/16 11:50:22;;;;;;;41.47;25.05;;;;;;;10.84;58.16;100464.19;5012045;28;20076;-80
2023/02/16 11:52:52;;;;;;;38.75;25.10;;;;;;;10.89;57.98;100463.03;5011342;28;20057;-80
2023/02/16 11:55:32;;;;;;;37.85;24.75;;;;;;;10.92;57.79;100465.50;5011412;28;20049;-80
2023/02/16 11:58:16;;;;;;;42.17;25.85;;;;;;;10.89;57.93;100467.44;5005062;28;20060;-80
2023/02/16 12:01:21;;;;;;;37.38;24.73;;;;;;;10.89;58.13;100468.31;5011667;28;20046;-80
2023/02/16 12:03:50;;;;;;;40.30;23.92;;;;;;;10.94;57.87;100460.19;5011586;28;20053;-80
2023/02/16 12:06:23;;;;;;;35.92;23.77;;;;;;;10.93;58.62;100453.22;5007248;28;20053;-81
2023/02/16 12:09:27;;;;;;;38.00;24.70;;;;;;;10.93;58.71;100447.94;5002715;28;20523;-79
2023/02/16 12:12:02;;;;;;;41.13;24.73;;;;;;;10.97;58.24;100446.00;5003737;28;20509;-80
2023/02/16 12:14:58;;;;;;;37.65;24.75;;;;;;;10.97;58.63;100446.00;5005559;28;20407;-80
2023/02/16 12:17:34;;;;;;;41.03;24.75;;;;;;;10.98;58.72;100453.84;5006412;28;20046;-80
2023/02/16 12:20:24;;;;;;;41.17;24.80;;;;;;;10.98;59.18;100439.81;5011395;28;20050;-80